Flight Track Log - Related Links

Times and Time Zones

All times are in EDT time to prevent confusion due to time zone crossing. See the RPA5499 flight status page for this flight to view local times or setup timezone preferences in your user account.

Time Position Orientation Groundspeed Altitude Reporting Facility
EDT Latitude Longitude Course Direction KTS MPH feet Rate Location/Type
Sat 07:12:53 PM 51.0833 -114.0333 195° South 110 127 3,600  Level Edmonton Center
Sat 07:13:53 PM 51.0500 -114.0500 197° South 160 184 5,200 1,950 Climbing Edmonton Center
Sat 07:14:53 PM 50.9833 -114.0333 171° South 220 253 7,500 2,550 Climbing Edmonton Center
Sat 07:15:53 PM 50.9167 -114.0333 180° South 240 276 10,300 2,150 Climbing Edmonton Center
Sat 07:16:53 PM 50.8333 -114.0000 166° South 320 368 11,800 2,200 Climbing Edmonton Center
Sat 07:17:53 PM 50.7500 -113.9667 166° South 340 391 14,700 2,800 Climbing Edmonton Center
Sat 07:18:53 PM 50.6500 -113.9167 162° South 350 403 17,400 2,450 Climbing Edmonton Center
Sat 07:19:53 PM 50.5500 -113.9000 174° South 360 414 19,600 2,250 Climbing Edmonton Center
Sat 07:20:53 PM 50.4500 -113.8500 162° South 370 426 21,900 2,100 Climbing Edmonton Center
Sat 07:21:53 PM 50.3333 -113.8333 175° South 390 449 23,800 1,950 Climbing Edmonton Center
Sat 07:22:53 PM 50.2333 -113.7833 162° South 400 460 25,800 1,900 Climbing Edmonton Center
Sat 07:23:53 PM 50.1167 -113.7500 170° South 410 472 27,600 1,600 Climbing Edmonton Center
Sat 07:24:53 PM 50.0000 -113.7333 175° South 410 472 29,000 1,350 Climbing Edmonton Center
Sat 07:25:53 PM 49.8833 -113.7167 175° South 420 483 30,300 1,200 Climbing Edmonton Center
Sat 07:26:53 PM 49.7667 -113.6833 170° South 430 495 31,400 1,300 Climbing Edmonton Center
Sat 07:27:53 PM 49.6500 -113.7000 185° South 440 506 32,900 800 Climbing Edmonton Center
Sat 07:28:53 PM 49.5167 -113.6667 171° South 440 506 33,000 50 Climbing Edmonton Center
Sat 07:29:53 PM 49.3833 -113.6333 171° South 460 529 33,000  Level Edmonton Center
Sat 07:30:53 PM 49.2500 -113.6167 175° South 470 541 33,000  Level Edmonton Center
Sat 07:31:53 PM 49.1333 -113.6000 175° South 470 541 33,000  Level Edmonton Center
Sat 07:32:53 PM 48.9833 -113.5667 172° South 470 541 33,000  Level Edmonton Center
Sat 07:33:53 PM 48.8667 -113.5500 175° South 470 541 33,000  Level Edmonton Center
Sat 07:34:53 PM 48.7333 -113.5500 180° South 470 541 33,000  Level Edmonton Center
Sat 07:35:53 PM 48.6000 -113.5167 171° South 480 552 33,000  Level Edmonton Center
Sat 07:36:53 PM 48.4667 -113.5000 175° South 470 541 33,000  Level Edmonton Center
Sat 07:37:53 PM 48.3333 -113.4667 171° South 480 552 33,000  Level Edmonton Center
Sat 07:39:05 PM 48.2361 -113.4386 169° South 479 551 33,000  Level Salt Lake Center
Sat 07:40:06 PM 48.0747 -113.4139 174° South 481 554 33,000  Level Salt Lake Center
Sat 07:41:08 PM 47.9417 -113.3950 175° South 481 554 33,000  Level Salt Lake Center
Sat 07:42:09 PM 47.8069 -113.3761 175° South 481 554 33,000  Level Salt Lake Center
Sat 07:43:11 PM 47.6714 -113.3558 174° South 483 556 33,000  Level Salt Lake Center
Sat 07:44:12 PM 47.5336 -113.3375 175° South 490 564 33,000  Level Salt Lake Center
Sat 07:45:13 PM 47.3956 -113.3161 174° South 497 572 33,000  Level Salt Lake Center
Sat 07:46:15 PM 47.2572 -113.2989 175° South 497 572 33,000  Level Salt Lake Center
Sat 07:47:16 PM 47.1200 -113.2794 174° South 497 572 33,000  Level Salt Lake Center
Sat 07:48:18 PM 46.9819 -113.2603 175° South 497 572 33,000  Level Salt Lake Center
Sat 07:49:19 PM 46.8450 -113.2406 174° South 497 572 33,000  Level Salt Lake Center
Sat 07:50:20 PM 46.6772 -113.2192 175° South 498 573 33,000  Level Salt Lake Center
Sat 07:51:22 PM 46.5408 -113.1992 174° South 498 573 33,000  Level Salt Lake Center
Sat 07:52:23 PM 46.3981 -113.1806 175° South 501 577 33,000  Level Salt Lake Center
Sat 07:53:24 PM 46.2586 -113.1622 175° South 498 573 33,000  Level Salt Lake Center
Sat 07:54:26 PM 46.1197 -113.1419 174° South 497 572 33,000  Level Salt Lake Center
Sat 07:55:27 PM 45.9817 -113.1233 175° South 494 568 33,000  Level Salt Lake Center
Sat 07:56:28 PM 45.8428 -113.1039 174° South 492 566 33,000  Level Salt Lake Center
Sat 07:57:30 PM 45.6947 -113.0847 175° South 492 566 33,000  Level Salt Lake Center
Sat 07:58:31 PM 45.5533 -113.0661 175° South 499 574 33,000  Level Salt Lake Center
Sat 07:59:32 PM 45.4125 -113.0483 175° South 501 577 33,000  Level Salt Lake Center
Sat 08:00:34 PM 45.2767 -113.0286 174° South 502 578 33,000  Level Salt Lake Center
Sat 08:01:35 PM 45.1425 -113.0122 175° South 507 583 33,000  Level Salt Lake Center
Sat 08:02:36 PM 44.9842 -112.9897 174° South 510 587 33,000  Level Salt Lake Center
Sat 08:03:38 PM 44.8483 -112.9731 175° South 511 588 33,000  Level Salt Lake Center
Sat 08:04:39 PM 44.7153 -112.9544 174° South 507 583 33,000  Level Salt Lake Center
Sat 08:05:40 PM 44.5592 -112.9356 175° South 505 581 33,000  Level Salt Lake Center
Sat 08:06:42 PM 44.4247 -112.9181 175° South 506 582 33,000  Level Salt Lake Center
Sat 08:07:43 PM 44.2703 -112.8969 174° South 502 578 33,000  Level Salt Lake Center
Sat 08:08:44 PM 44.1392 -112.8817 175° South 501 577 33,000  Level Salt Lake Center
Sat 08:09:46 PM 43.9864 -112.8625 175° South 499 574 33,000  Level Salt Lake Center
Sat 08:10:47 PM 43.8556 -112.8456 175° South 498 573 33,000  Level Salt Lake Center
Sat 08:11:48 PM 43.7250 -112.8289 175° South 496 571 33,000  Level Salt Lake Center
Sat 08:12:49 PM 43.5711 -112.8103 175° South 496 571 33,000  Level Salt Lake Center
Sat 08:13:51 PM 43.4394 -112.7944 175° South 496 571 33,000  Level Salt Lake Center
Sat 08:14:52 PM 43.2864 -112.7739 174° South 496 571 33,000  Level Salt Lake Center
Sat 08:15:53 PM 43.1536 -112.7583 175° South 496 571 33,000  Level Salt Lake Center
Sat 08:16:55 PM 43.0206 -112.7419 175° South 497 572 33,000  Level Salt Lake Center
Sat 08:17:56 PM 42.8689 -112.7233 175° South 496 571 33,000  Level Salt Lake Center
Sat 08:18:57 PM 42.7367 -112.7081 175° South 496 571 33,000  Level Salt Lake Center
Sat 08:19:58 PM 42.6000 -112.6919 175° South 496 571 33,000  Level Salt Lake Center
Sat 08:21:00 PM 42.4642 -112.6750 175° South 495 570 33,000  Level Salt Lake Center
Sat 08:22:01 PM 42.3269 -112.6592 175° South 494 568 33,000  Level Salt Lake Center
Sat 08:23:02 PM 42.1906 -112.6428 175° South 494 568 33,000  Level Salt Lake Center
Sat 08:24:04 PM 42.0275 -112.6228 175° South 494 568 33,000  Level Salt Lake Center
Sat 08:25:05 PM 41.8933 -112.6072 175° South 491 565 33,000  Level Salt Lake Center
Sat 08:26:06 PM 41.7578 -112.5908 175° South 491 565 33,000  Level Salt Lake Center
Sat 08:27:08 PM 41.6203 -112.5756 175° South 492 566 33,000  Level Salt Lake Center
Sat 08:28:09 PM 41.4869 -112.5600 175° South 488 562 33,000  Level Salt Lake Center
Sat 08:29:10 PM 41.3522 -112.5436 175° South 488 562 33,000  Level Salt Lake Center
Sat 08:30:12 PM 41.2189 -112.5342 177° South 486 559 33,000  Level Salt Lake Center
Sat 08:31:13 PM 41.0864 -112.5406 182° South 481 554 33,000  Level Salt Lake Center
Sat 08:32:14 PM 40.9281 -112.5481 182° South 480 552 33,000  Level Salt Lake Center
Sat 08:33:16 PM 40.7967 -112.5519 181° South 478 550 33,000  Level Salt Lake Center
Sat 08:34:17 PM 40.6656 -112.5581 182° South 474 545 33,000  Level Salt Lake Center
Sat 08:35:18 PM 40.5347 -112.5633 182° South 474 545 33,000  Level Salt Lake Center
Sat 08:36:20 PM 40.4025 -112.5675 181° South 476 548 33,000  Level Salt Lake Center
Sat 08:37:21 PM 40.2711 -112.5733 182° South 476 548 33,000  Level Salt Lake Center
Sat 08:38:22 PM 40.1397 -112.5778 181° South 475 547 33,000  Level Salt Lake Center
Sat 08:39:24 PM 39.9819 -112.5853 182° South 475 547 33,000  Level Salt Lake Center
Sat 08:40:25 PM 39.8533 -112.6142 190° South 474 545 33,000  Level Salt Lake Center
Sat 08:41:26 PM 39.7258 -112.6506 192° South 472 543 33,000  Level Salt Lake Center
Sat 08:42:28 PM 39.5972 -112.6864 192° South 467 537 33,000  Level Salt Lake Center
Sat 08:43:29 PM 39.4708 -112.7186 191° South 465 535 33,000 148 Level Salt Lake Center
Sat 08:44:30 PM 39.3444 -112.7522 192° South 463 533 33,300 488 Climbing Salt Lake Center
Sat 08:45:32 PM 39.2183 -112.7886 193° South 464 534 34,000 341 Climbing Salt Lake Center
Sat 08:46:33 PM 39.0933 -112.8206 191° South 463 533 34,000  Level Salt Lake Center
Sat 08:47:34 PM 38.9681 -112.8533 191° South 461 531 34,000  Level Salt Lake Center
Sat 08:48:36 PM 38.8417 -112.8872 192° South 462 532 34,000  Level Salt Lake Center
Sat 08:49:37 PM 38.6917 -112.9300 193° South 462 532 34,000  Level Salt Lake Center
Sat 08:50:38 PM 38.5672 -112.9617 191° South 460 529 34,000  Level Salt Lake Center
Sat 08:51:40 PM 38.4422 -112.9944 192° South 460 529 34,000  Level Salt Lake Center
Sat 08:52:41 PM 38.3239 -113.0419 197° South 454 522 34,000  Level Salt Lake Center
Sat 08:53:42 PM 38.2233 -113.1250 213° Southwest 438 504 34,000  Level Salt Lake Center
Sat 08:54:44 PM 38.1217 -113.2075 213° Southwest 437 503 34,000  Level Salt Lake Center
Sat 08:55:45 PM 38.0200 -113.2900 213° Southwest 437 503 34,000  Level Salt Lake Center
Sat 08:56:46 PM 37.9172 -113.3711 212° Southwest 437 503 34,000  Level Salt Lake Center
Sat 08:57:48 PM 37.7950 -113.4689 212° Southwest 437 503 34,000  Level Salt Lake Center
Sat 08:58:49 PM 37.6936 -113.5489 212° Southwest 436 502 34,000  Level Salt Lake Center
Sat 08:59:50 PM 37.5925 -113.6297 212° Southwest 435 501 34,000  Level Salt Lake Center
Sat 09:00:32 PM 37.5294 -113.6764 210° Southwest 437 503 34,000 -233 Level Los Angeles Center
Sat 09:01:33 PM 37.4064 -113.7742 212° Southwest 438 504 33,600 -780 Descending Los Angeles Center
Sat 09:02:35 PM 37.3044 -113.8547 212° Southwest 437 503 32,400 -1,113 Descending Los Angeles Center
Sat 09:03:37 PM 37.2050 -113.9311 211° Southwest 440 506 31,300 -1,122 Descending Los Angeles Center
Sat 09:04:38 PM 37.1003 -114.0139 212° Southwest 440 506 30,100 -1,171 Descending Los Angeles Center
Sat 09:05:40 PM 36.9950 -114.0953 212° Southwest 443 510 28,900 -1,122 Descending Los Angeles Center
Sat 09:06:41 PM 36.8928 -114.1747 212° Southwest 437 503 27,800 -1,220 Descending Los Angeles Center
Sat 09:07:43 PM 36.7717 -114.2672 211° Southwest 427 491 26,400 -1,220 Descending Los Angeles Center
Sat 09:08:44 PM 36.6739 -114.3433 212° Southwest 417 480 25,300 -1,024 Descending Los Angeles Center
Sat 09:09:46 PM 36.5894 -114.4097 212° Southwest 366 421 24,300 -976 Descending Los Angeles Center
Sat 09:10:47 PM 36.5122 -114.4683 211° Southwest 332 382 23,300 -878 Descending Los Angeles Center
Sat 09:11:49 PM 36.4397 -114.5247 212° Southwest 311 358 22,500 -780 Descending Los Angeles Center
Sat 09:12:50 PM 36.3678 -114.5797 212° Southwest 308 354 21,700 -780 Descending Los Angeles Center
Sat 09:13:52 PM 36.3003 -114.6317 212° Southwest 293 337 20,900 -732 Descending Los Angeles Center
Sat 09:14:53 PM 36.2325 -114.6822 211° Southwest 289 333 20,200 -439 Descending Los Angeles Center
Sat 09:15:55 PM 36.1692 -114.7314 212° Southwest 277 319 20,000 -97 Descending Los Angeles Center
Sat 09:16:57 PM 36.1064 -114.7789 211° Southwest 268 308 20,000  Level Los Angeles Center
Sat 09:17:58 PM 36.0294 -114.8375 212° Southwest 268 308 20,000  Level Los Angeles Center
Sat 09:19:00 PM 35.9525 -114.8500 187° South 289 333 20,000  Level Los Angeles Center
Sat 09:20:01 PM 35.8717 -114.8228 165° South 300 345 20,000  Level Los Angeles Center
Sat 09:21:03 PM 35.7894 -114.7961 165° South 300 345 20,000  Level Los Angeles Center
Sat 09:22:04 PM 35.7069 -114.7700 166° South 303 349 20,000  Level Los Angeles Center
Sat 09:23:06 PM 35.6267 -114.7439 165° South 302 348 20,000 -878 Level Los Angeles Center
Sat 09:24:07 PM 35.5458 -114.7189 166° South 301 346 18,200 -2,146 Descending Los Angeles Center
Sat 09:25:09 PM 35.4678 -114.6947 166° South 295 339 15,600 -2,195 Descending Los Angeles Center
Sat 09:26:10 PM 35.3942 -114.6728 166° South 283 326 13,700 -1,659 Descending Los Angeles Center
Sat 09:27:12 PM 35.3111 -114.6456 165° South 268 308 12,200 -1,024 Descending Los Angeles Center
Sat 09:28:13 PM 35.2444 -114.6236 165° South 258 297 11,600 -976 Descending Los Angeles Center
Sat 09:29:15 PM 35.1850 -114.6253 181° South 230 265 10,200 -1,561 Descending Los Angeles Center
Sat 09:30:16 PM 35.1303 -114.6428 195° South 211 243 8,400 -1,756 Descending Los Angeles Center
Sat 09:31:18 PM 35.0758 -114.6617 196° South 206 237 6,600 -1,756 Descending Los Angeles Center
Sat 09:32:19 PM 35.0183 -114.6669 184° South 206 237 4,800 -1,377 Descending Los Angeles Center
Sat 09:33:20 PM 35.0189 -114.5989 89° East 207 238 3,800 -984 Descending Los Angeles Center
Sat 09:35:00 PM 35.1500 -114.5500 44° Northeast  Level FlightAware Approximate
Sat 09:42:00 PM 35.1560 -114.5594 44° Northeast  Level Estimated
Sat 09:43:00 PM 35.1560 -114.5594 44° Northeast  Level Estimated

Login

Don't have an account? Register now (free) for customized features, flight alerts, and more!